createdAt,value
2023-04-19T00:00:13.552Z,24.07
2023-04-19T00:01:13.557Z,24.07
2023-04-19T00:02:13.678Z,24.07
2023-04-19T00:03:13.712Z,24.07
2023-04-19T00:04:13.830Z,24.07
2023-04-19T00:05:13.934Z,24.06
2023-04-19T00:06:13.735Z,24.06
2023-04-19T00:07:13.804Z,24.05
2023-04-19T00:08:13.844Z,24.06
2023-04-19T00:09:13.904Z,24.06
2023-04-19T00:10:13.957Z,24.06
2023-04-19T00:11:14.029Z,24.05
2023-04-19T00:12:14.068Z,24.05
2023-04-19T00:13:14.125Z,24.05
2023-04-19T00:14:14.534Z,24.04
2023-04-19T00:15:14.232Z,24.04
2023-04-19T00:16:14.288Z,24.03
2023-04-19T00:17:14.332Z,24.03
2023-04-19T00:18:14.383Z,24.04
2023-04-19T00:19:14.449Z,24.03
2023-04-19T00:20:14.510Z,24.03
2023-04-19T00:21:14.550Z,24.03
2023-04-19T00:22:14.596Z,24.03
2023-04-19T00:23:14.657Z,24.03
2023-04-19T00:24:14.848Z,24.02
2023-04-19T00:25:14.836Z,24.03
2023-04-19T00:26:14.828Z,24.03
2023-04-19T00:27:14.883Z,24.02
2023-04-19T00:28:14.917Z,24.03
2023-04-19T00:29:14.980Z,24.03
2023-04-19T00:30:15.028Z,24.03
2023-04-19T00:31:15.117Z,24.03
2023-04-19T00:32:15.125Z,24.02
2023-04-19T00:33:15.192Z,24.02
2023-04-19T00:34:15.434Z,24.02
2023-04-19T00:35:15.276Z,24.02
2023-04-19T00:36:15.331Z,24.02
2023-04-19T00:37:15.386Z,24.01
2023-04-19T00:38:15.457Z,24.01
2023-04-19T00:39:15.529Z,24.01
2023-04-19T00:40:15.553Z,24.01
2023-04-19T00:41:15.616Z,24.01
2023-04-19T00:42:15.712Z,24.00
2023-04-19T00:43:15.741Z,24.00
2023-04-19T00:44:16.031Z,24.01
2023-04-19T00:45:15.844Z,24.00
2023-04-19T00:46:15.897Z,23.99
2023-04-19T00:47:15.984Z,24.00
2023-04-19T00:48:15.983Z,23.99
2023-04-19T00:49:16.050Z,23.99
2023-04-19T00:50:16.084Z,23.99
2023-04-19T00:51:16.141Z,23.99
2023-04-19T00:52:16.196Z,24.00
2023-04-19T00:53:16.244Z,23.99
2023-04-19T00:54:16.666Z,23.99
2023-04-19T00:55:16.368Z,23.98
2023-04-19T00:56:16.404Z,23.98
2023-04-19T00:57:16.469Z,23.98
2023-04-19T00:58:16.511Z,23.98
2023-04-19T00:59:16.581Z,23.97
2023-04-19T01:00:16.623Z,23.98
2023-04-19T01:01:16.678Z,23.97
2023-04-19T01:02:16.841Z,23.97
2023-04-19T01:03:17.013Z,23.98
2023-04-19T01:04:17.350Z,23.97
2023-04-19T01:05:16.908Z,23.98
2023-04-19T01:06:16.988Z,23.98
2023-04-19T01:07:17.048Z,23.98
2023-04-19T01:08:17.096Z,23.97
2023-04-19T01:09:17.150Z,23.97
2023-04-19T01:10:17.203Z,23.96
2023-04-19T01:11:17.293Z,23.97
2023-04-19T01:12:17.316Z,23.96
2023-04-19T01:13:17.383Z,23.96
2023-04-19T01:14:17.581Z,23.95
2023-04-19T01:15:17.486Z,23.95
2023-04-19T01:16:17.571Z,23.95
2023-04-19T01:17:17.682Z,23.95
2023-04-19T01:18:17.677Z,23.95
2023-04-19T01:19:17.751Z,23.95
2023-04-19T01:20:17.816Z,23.94
2023-04-19T01:21:17.872Z,23.95
2023-04-19T01:22:17.929Z,23.94
2023-04-19T01:23:17.994Z,23.95
2023-04-19T01:24:18.059Z,23.94
2023-04-19T01:25:18.119Z,23.94
2023-04-19T01:26:18.198Z,23.93
2023-04-19T01:27:18.348Z,23.94
2023-04-19T01:28:18.312Z,23.94
2023-04-19T01:29:18.358Z,23.93
2023-04-19T01:30:18.412Z,23.93
2023-04-19T01:31:18.521Z,23.91
2023-04-19T01:32:18.523Z,23.92
2023-04-19T01:33:18.582Z,23.92
2023-04-19T01:34:18.654Z,23.91
2023-04-19T01:35:18.701Z,23.92
2023-04-19T01:36:18.768Z,23.92
2023-04-19T01:37:18.840Z,23.93
2023-04-19T01:38:18.899Z,23.93
2023-04-19T01:39:18.972Z,23.92
2023-04-19T01:40:19.005Z,23.92
2023-04-19T01:41:19.063Z,23.93
2023-04-19T01:42:19.121Z,23.93
2023-04-19T01:43:19.172Z,23.93
2023-04-19T01:44:19.243Z,23.92
2023-04-19T01:45:19.290Z,23.93
2023-04-19T01:46:19.384Z,23.93
2023-04-19T01:47:19.410Z,23.92
2023-04-19T01:48:19.492Z,23.92
2023-04-19T01:49:19.546Z,23.91
2023-04-19T01:50:19.596Z,23.91
2023-04-19T01:51:19.817Z,23.91
2023-04-19T01:52:19.733Z,23.91
2023-04-19T01:53:19.788Z,23.91
2023-04-19T01:54:19.837Z,23.91
2023-04-19T01:55:19.908Z,23.91
2023-04-19T01:56:19.971Z,23.91
2023-04-19T01:57:20.046Z,23.91
2023-04-19T01:58:20.079Z,23.90
2023-04-19T01:59:20.141Z,23.90
2023-04-19T02:00:20.194Z,23.90
2023-04-19T02:01:20.315Z,23.90
2023-04-19T02:02:20.414Z,23.90
2023-04-19T02:03:20.532Z,23.90
2023-04-19T02:04:20.552Z,23.91
2023-04-19T02:05:20.505Z,23.90
2023-04-19T02:06:20.563Z,23.90
2023-04-19T02:07:20.621Z,23.90
2023-04-19T02:08:20.682Z,23.90
2023-04-19T02:09:20.751Z,23.91
2023-04-19T02:10:20.803Z,23.89
2023-04-19T02:11:20.862Z,23.89
2023-04-19T02:12:20.894Z,23.89
2023-04-19T02:13:20.942Z,23.88
2023-04-19T02:14:21.003Z,23.89
2023-04-19T02:15:21.036Z,23.88
2023-04-19T02:16:21.181Z,23.88
2023-04-19T02:17:21.147Z,23.87
2023-04-19T02:18:21.212Z,23.88
2023-04-19T02:19:21.276Z,23.88
2023-04-19T02:20:21.346Z,23.87
2023-04-19T02:21:21.385Z,23.88
2023-04-19T02:22:21.454Z,23.88
2023-04-19T02:23:21.517Z,23.87
2023-04-19T02:24:21.591Z,23.87
2023-04-19T02:25:21.657Z,23.87
2023-04-19T02:26:21.729Z,23.87
2023-04-19T02:27:21.775Z,23.88
2023-04-19T02:28:21.838Z,23.87
2023-04-19T02:29:21.906Z,23.87
2023-04-19T02:30:21.959Z,23.88
2023-04-19T02:31:22.052Z,23.87
2023-04-19T02:32:22.114Z,23.87
2023-04-19T02:33:22.160Z,23.86
2023-04-19T02:34:22.226Z,23.86
2023-04-19T02:35:22.293Z,23.86
2023-04-19T02:36:22.350Z,23.86
2023-04-19T02:37:22.405Z,23.85
2023-04-19T02:38:22.477Z,23.85
2023-04-19T02:39:22.543Z,23.85
2023-04-19T02:40:22.607Z,23.86
2023-04-19T02:41:22.676Z,23.86
2023-04-19T02:42:22.744Z,23.87
2023-04-19T02:43:22.809Z,23.86
2023-04-19T02:44:22.876Z,23.86
2023-04-19T02:45:22.950Z,23.85
2023-04-19T02:46:22.983Z,23.84
2023-04-19T02:47:23.051Z,23.85
2023-04-19T02:48:22.959Z,23.85
2023-04-19T02:49:22.950Z,23.84
2023-04-19T02:50:22.938Z,23.84
2023-04-19T02:51:22.939Z,23.84
2023-04-19T02:52:22.937Z,23.83
2023-04-19T02:53:22.952Z,23.83
2023-04-19T02:54:22.971Z,23.83
2023-04-19T02:55:22.936Z,23.83
2023-04-19T02:56:22.977Z,23.83
2023-04-19T02:57:23.042Z,23.83
2023-04-19T02:58:23.079Z,23.85
2023-04-19T02:59:23.148Z,23.85
2023-04-19T03:00:23.183Z,23.86
2023-04-19T03:01:23.289Z,23.83
2023-04-19T03:02:23.330Z,23.77
2023-04-19T03:03:23.371Z,23.69
2023-04-19T03:04:23.466Z,23.55
2023-04-19T03:05:23.428Z,23.45
2023-04-19T03:06:23.440Z,23.38
2023-04-19T03:07:23.444Z,23.29
2023-04-19T03:08:23.472Z,23.22
2023-04-19T03:09:23.481Z,23.15
2023-04-19T03:10:23.517Z,23.11
2023-04-19T03:11:23.648Z,23.07
2023-04-19T03:12:23.561Z,23.03
2023-04-19T03:13:23.591Z,22.98
2023-04-19T03:14:23.642Z,22.93
2023-04-19T03:15:23.729Z,22.90
2023-04-19T03:16:23.791Z,22.86
2023-04-19T03:17:23.792Z,22.83
2023-04-19T03:18:23.803Z,22.81
2023-04-19T03:19:23.831Z,22.79
2023-04-19T03:20:23.873Z,22.77
2023-04-19T03:21:23.904Z,22.75
2023-04-19T03:22:23.943Z,22.73
2023-04-19T03:23:23.979Z,22.71
2023-04-19T03:24:24.025Z,22.69
2023-04-19T03:25:24.059Z,22.68
2023-04-19T03:26:24.109Z,22.67
2023-04-19T03:27:24.137Z,22.67
2023-04-19T03:28:24.184Z,22.65
2023-04-19T03:29:24.225Z,22.64
2023-04-19T03:30:24.288Z,22.63
2023-04-19T03:31:24.437Z,22.62
2023-04-19T03:32:24.400Z,22.60
2023-04-19T03:33:24.421Z,22.57
2023-04-19T03:34:24.489Z,22.55
2023-04-19T03:35:24.525Z,22.52
2023-04-19T03:36:24.573Z,22.51
2023-04-19T03:37:24.624Z,22.48
2023-04-19T03:38:24.700Z,22.49
2023-04-19T03:39:24.741Z,22.49
2023-04-19T03:40:24.808Z,22.48
2023-04-19T03:41:24.853Z,22.46
2023-04-19T03:42:25.974Z,22.44
2023-04-19T03:43:24.956Z,22.41
2023-04-19T03:44:25.023Z,22.41
2023-04-19T03:45:25.081Z,22.39
2023-04-19T03:46:25.156Z,22.38
2023-04-19T03:47:25.240Z,22.38
2023-04-19T03:48:25.264Z,22.38
2023-04-19T03:49:25.320Z,22.38
2023-04-19T03:50:25.388Z,22.37
2023-04-19T03:51:25.451Z,22.35
2023-04-19T03:52:25.531Z,22.34
2023-04-19T03:53:25.589Z,22.31
2023-04-19T03:54:25.665Z,22.31
2023-04-19T03:55:25.734Z,22.30
2023-04-19T03:56:25.828Z,22.28
2023-04-19T03:57:25.877Z,22.28
2023-04-19T03:58:25.958Z,22.28
2023-04-19T03:59:26.030Z,22.28
2023-04-19T04:00:26.085Z,22.26
2023-04-19T04:01:26.168Z,22.25
2023-04-19T04:02:26.351Z,22.24
2023-04-19T04:03:26.661Z,22.24
2023-04-19T04:04:26.532Z,22.21
2023-04-19T04:05:26.419Z,22.20
2023-04-19T04:06:26.384Z,22.20
2023-04-19T04:07:26.398Z,22.17
2023-04-19T04:08:26.442Z,22.18
2023-04-19T04:09:26.454Z,22.17
2023-04-19T04:10:26.478Z,22.16
2023-04-19T04:11:26.501Z,22.16
2023-04-19T04:12:26.526Z,22.15
2023-04-19T04:13:26.534Z,22.15
2023-04-19T04:14:26.610Z,22.15
2023-04-19T04:15:26.687Z,22.12
2023-04-19T04:16:26.803Z,22.11
2023-04-19T04:17:26.860Z,22.09
2023-04-19T04:18:26.942Z,22.11
2023-04-19T04:19:27.028Z,22.17
2023-04-19T04:20:27.087Z,22.21
2023-04-19T04:21:27.318Z,22.25
2023-04-19T04:22:27.225Z,22.30
2023-04-19T04:23:27.292Z,22.34
2023-04-19T04:24:27.359Z,22.38
2023-04-19T04:25:27.398Z,22.42
2023-04-19T04:26:27.444Z,22.46
2023-04-19T04:27:27.504Z,22.49
2023-04-19T04:28:27.545Z,22.51
2023-04-19T04:29:27.590Z,22.54
2023-04-19T04:30:28.058Z,22.56
2023-04-19T04:31:27.770Z,22.59
2023-04-19T04:32:27.761Z,22.60
2023-04-19T04:33:27.758Z,22.63
2023-04-19T04:34:27.787Z,22.65
2023-04-19T04:35:27.816Z,22.67
2023-04-19T04:36:27.853Z,22.68
2023-04-19T04:37:27.884Z,22.70
2023-04-19T04:38:27.924Z,22.72
2023-04-19T04:39:27.961Z,22.72
2023-04-19T04:40:27.989Z,22.73
2023-04-19T04:41:28.027Z,22.75
2023-04-19T04:42:28.057Z,22.75
2023-04-19T04:43:28.095Z,22.77
2023-04-19T04:44:28.356Z,22.78
2023-04-19T04:45:28.185Z,22.79
2023-04-19T04:46:28.174Z,22.79
2023-04-19T04:47:28.177Z,22.81
2023-04-19T04:48:28.154Z,22.81
2023-04-19T04:49:28.165Z,22.82
2023-04-19T04:50:28.180Z,22.83
2023-04-19T04:51:28.177Z,22.83
2023-04-19T04:52:28.184Z,22.76
2023-04-19T04:53:28.189Z,22.70
2023-04-19T04:54:28.222Z,22.62
2023-04-19T04:55:28.222Z,22.55
2023-04-19T04:56:28.268Z,22.51
2023-04-19T04:57:28.263Z,22.46
2023-04-19T04:58:28.272Z,22.43
2023-04-19T04:59:28.276Z,22.41
2023-04-19T05:00:28.292Z,22.36
2023-04-19T05:01:28.365Z,22.29
2023-04-19T05:02:28.438Z,22.23
2023-04-19T05:03:28.443Z,22.21
2023-04-19T05:04:28.534Z,22.18
2023-04-19T05:05:28.556Z,22.15
2023-04-19T05:06:28.636Z,22.09
2023-04-19T05:07:28.724Z,22.07
2023-04-19T05:08:28.792Z,22.05
2023-04-19T05:09:28.907Z,22.03
2023-04-19T05:10:28.968Z,22.04
2023-04-19T05:11:29.045Z,22.02
2023-04-19T05:12:29.140Z,22.01
2023-04-19T05:13:29.226Z,22.01
2023-04-19T05:14:29.311Z,22.01
2023-04-19T05:15:29.397Z,21.98
2023-04-19T05:16:29.559Z,21.97
2023-04-19T05:17:29.661Z,21.96
2023-04-19T05:18:29.688Z,21.94
2023-04-19T05:19:29.776Z,21.91
2023-04-19T05:20:29.852Z,21.90
2023-04-19T05:21:29.943Z,21.89
2023-04-19T05:22:30.022Z,21.89
2023-04-19T05:23:30.123Z,21.88
2023-04-19T05:24:30.250Z,21.87
2023-04-19T05:25:30.328Z,21.89
2023-04-19T05:26:30.412Z,21.87
2023-04-19T05:27:30.518Z,21.87
2023-04-19T05:28:30.608Z,21.87
2023-04-19T05:29:30.706Z,21.90
2023-04-19T05:30:30.793Z,21.96
2023-04-19T05:31:30.913Z,22.02
2023-04-19T05:32:31.045Z,22.08
2023-04-19T05:33:31.054Z,22.17
2023-04-19T05:34:31.115Z,22.24
2023-04-19T05:35:31.173Z,22.30
2023-04-19T05:36:31.240Z,22.38
2023-04-19T05:37:31.296Z,22.43
2023-04-19T05:38:31.362Z,22.51
2023-04-19T05:39:31.453Z,22.56
2023-04-19T05:40:31.458Z,22.60
2023-04-19T05:41:31.503Z,22.65
2023-04-19T05:42:31.568Z,22.67
2023-04-19T05:43:31.587Z,22.72
2023-04-19T05:44:31.631Z,22.76
2023-04-19T05:45:31.626Z,22.80
2023-04-19T05:46:31.728Z,22.80
2023-04-19T05:47:31.654Z,22.73
2023-04-19T05:48:31.636Z,22.50
2023-04-19T05:49:31.676Z,22.08
2023-04-19T05:50:31.727Z,21.67
2023-04-19T05:51:31.715Z,21.41
2023-04-19T05:52:31.765Z,21.30
2023-04-19T05:53:31.792Z,21.28
2023-04-19T05:54:32.043Z,21.30
2023-04-19T05:55:31.860Z,21.34
2023-04-19T05:56:31.886Z,21.39
2023-04-19T05:57:31.946Z,21.41
2023-04-19T05:58:31.954Z,21.45
2023-04-19T05:59:31.995Z,21.51
2023-04-19T06:00:32.032Z,21.52
2023-04-19T06:01:32.028Z,21.52
2023-04-19T06:02:32.192Z,21.53
2023-04-19T06:03:32.461Z,21.51
2023-04-19T06:04:32.334Z,21.50
2023-04-19T06:05:32.217Z,21.49
2023-04-19T06:06:32.279Z,21.48
2023-04-19T06:07:34.488Z,21.48
2023-04-19T06:08:33.288Z,21.49
2023-04-19T06:09:32.309Z,21.49
2023-04-19T06:10:44.570Z,21.51
2023-04-19T06:11:42.998Z,21.52
2023-04-19T06:12:33.408Z,21.51
2023-04-19T06:13:32.459Z,21.51
2023-04-19T06:14:32.499Z,21.50
2023-04-19T06:15:32.521Z,21.49
2023-04-19T06:16:32.633Z,21.51
2023-04-19T06:17:32.623Z,21.54
2023-04-19T06:18:32.635Z,21.55
2023-04-19T06:19:32.680Z,21.55
2023-04-19T06:20:32.706Z,21.57
2023-04-19T06:21:32.771Z,21.60
2023-04-19T06:22:32.775Z,21.60
2023-04-19T06:23:32.844Z,21.58
2023-04-19T06:24:34.934Z,21.56
2023-04-19T06:25:32.936Z,21.57
2023-04-19T06:26:33.012Z,21.59
2023-04-19T06:27:33.035Z,21.64
2023-04-19T06:28:33.108Z,21.66
2023-04-19T06:29:33.092Z,21.67
2023-04-19T06:30:33.128Z,21.67
2023-04-19T06:31:33.189Z,21.65
2023-04-19T06:32:33.228Z,21.70
2023-04-19T06:33:33.244Z,21.75
2023-04-19T06:34:33.268Z,21.82
2023-04-19T06:35:33.273Z,21.89
2023-04-19T06:36:33.296Z,21.97
2023-04-19T06:37:33.311Z,22.04
2023-04-19T06:38:33.357Z,22.11
2023-04-19T06:39:33.357Z,22.16
2023-04-19T06:40:33.376Z,22.18
2023-04-19T06:41:33.396Z,22.21
2023-04-19T06:42:33.421Z,22.23
2023-04-19T06:43:33.523Z,22.23
2023-04-19T06:44:33.595Z,22.26
2023-04-19T06:45:33.717Z,22.30
2023-04-19T06:46:33.768Z,22.34
2023-04-19T06:47:35.600Z,22.39
2023-04-19T06:48:33.924Z,22.42
2023-04-19T06:49:33.991Z,22.47
2023-04-19T06:50:34.124Z,22.53
2023-04-19T06:51:34.169Z,22.59
2023-04-19T06:52:34.203Z,22.65
2023-04-19T06:53:34.268Z,22.70
2023-04-19T06:54:34.287Z,22.74
2023-04-19T06:55:34.303Z,22.74
2023-04-19T06:56:34.311Z,22.74
2023-04-19T06:57:34.478Z,22.71
2023-04-19T06:58:35.137Z,22.68
2023-04-19T06:59:34.380Z,22.63
2023-04-19T07:00:34.417Z,22.61
2023-04-19T07:01:34.463Z,22.58
2023-04-19T07:02:34.584Z,22.55
2023-04-19T07:03:34.798Z,22.52
2023-04-19T07:04:34.697Z,22.50
2023-04-19T07:05:34.492Z,22.50
2023-04-19T07:06:34.528Z,22.49
2023-04-19T07:07:34.534Z,22.48
2023-04-19T07:08:48.571Z,22.45
2023-04-19T07:09:35.616Z,22.44
2023-04-19T07:10:34.630Z,22.43
2023-04-19T07:11:34.665Z,22.44
2023-04-19T07:12:34.677Z,22.45
2023-04-19T07:13:34.707Z,22.45
2023-04-19T07:14:34.824Z,22.45
2023-04-19T07:15:34.782Z,22.45
2023-04-19T07:16:34.788Z,22.44
2023-04-19T07:17:34.850Z,22.45
2023-04-19T07:18:34.799Z,22.45
2023-04-19T07:19:34.826Z,22.45
2023-04-19T07:20:34.922Z,22.45
2023-04-19T07:21:34.861Z,22.47
2023-04-19T07:22:34.895Z,22.48
2023-04-19T07:23:34.901Z,22.48
2023-04-19T07:24:34.922Z,22.49
2023-04-19T07:25:34.935Z,22.51
2023-04-19T07:26:34.935Z,22.51
2023-04-19T07:27:35.033Z,22.52
2023-04-19T07:28:34.990Z,22.53
2023-04-19T07:29:35.010Z,22.53
2023-04-19T07:30:35.013Z,22.52
2023-04-19T07:31:35.032Z,22.53
2023-04-19T07:32:35.137Z,22.54
2023-04-19T07:33:35.107Z,22.55
2023-04-19T07:34:35.098Z,22.55
2023-04-19T07:35:35.099Z,22.56
2023-04-19T07:36:35.118Z,22.58
2023-04-19T07:37:36.140Z,22.58
2023-04-19T07:38:35.154Z,22.61
2023-04-19T07:39:35.187Z,22.59
2023-04-19T07:40:35.199Z,22.58
2023-04-19T07:41:36.289Z,22.60
2023-04-19T07:42:35.362Z,22.62
2023-04-19T07:43:35.430Z,22.66
2023-04-19T07:44:35.520Z,22.71
2023-04-19T07:45:35.571Z,22.75
2023-04-19T07:46:35.671Z,22.80
2023-04-19T07:47:35.712Z,22.84
2023-04-19T07:48:35.712Z,22.89
2023-04-19T07:49:35.727Z,22.94
2023-04-19T07:50:35.725Z,22.97
2023-04-19T07:51:35.760Z,23.00
2023-04-19T07:52:35.766Z,23.03
2023-04-19T07:53:35.771Z,23.06
2023-04-19T07:54:35.803Z,23.07
2023-04-19T07:55:35.805Z,23.09
2023-04-19T07:56:35.809Z,23.11
2023-04-19T07:57:35.812Z,23.13
2023-04-19T07:58:35.815Z,23.15
2023-04-19T07:59:35.825Z,23.16
2023-04-19T08:00:35.867Z,23.18
2023-04-19T08:01:36.086Z,23.19
2023-04-19T08:02:35.940Z,23.21
2023-04-19T08:03:35.938Z,23.22
2023-04-19T08:04:36.159Z,23.23
2023-04-19T08:05:36.128Z,23.24
2023-04-19T08:06:35.890Z,23.26
2023-04-19T08:07:35.874Z,23.26
2023-04-19T08:08:35.884Z,23.27
2023-04-19T08:09:35.898Z,23.26
2023-04-19T08:10:35.896Z,23.26
2023-04-19T08:11:35.896Z,23.26
2023-04-19T08:12:42.784Z,23.25
2023-04-19T08:13:36.900Z,23.27
2023-04-19T08:14:47.480Z,23.28
2023-04-19T08:16:20.261Z,23.29
2023-04-19T08:17:41.889Z,23.32
2023-04-19T08:18:36.902Z,23.33
2023-04-19T08:19:35.900Z,23.34
2023-04-19T08:20:35.873Z,23.35
2023-04-19T08:21:41.125Z,23.35
2023-04-19T08:22:36.901Z,23.36
2023-04-19T08:23:47.285Z,23.39
2023-04-19T08:24:36.893Z,23.39
2023-04-19T08:25:35.917Z,23.40
2023-04-19T08:26:35.908Z,23.41
2023-04-19T08:27:35.890Z,23.43
2023-04-19T08:28:35.889Z,23.44
2023-04-19T08:29:35.886Z,23.47
2023-04-19T08:30:36.115Z,23.51
2023-04-19T08:31:35.910Z,23.52
2023-04-19T08:32:35.886Z,23.51
2023-04-19T08:33:35.878Z,23.50
2023-04-19T08:34:35.876Z,23.49
2023-04-19T08:35:35.878Z,23.47
2023-04-19T08:36:41.117Z,23.44
2023-04-19T08:37:36.876Z,23.42
2023-04-19T08:38:35.874Z,23.37
2023-04-19T08:39:36.227Z,23.35
2023-04-19T08:40:35.882Z,23.31
2023-04-19T08:41:35.892Z,23.28
2023-04-19T08:42:37.066Z,23.25
2023-04-19T08:43:35.900Z,23.21
2023-04-19T08:44:37.417Z,23.19
2023-04-19T08:45:36.046Z,23.16
2023-04-19T08:46:36.438Z,23.13
2023-04-19T08:47:42.018Z,23.15
2023-04-19T08:48:37.005Z,23.14
2023-04-19T08:49:35.972Z,23.15
2023-04-19T08:50:48.426Z,23.14
2023-04-19T08:51:36.991Z,23.13
2023-04-19T08:52:47.820Z,23.15
2023-04-19T08:53:37.002Z,23.18
2023-04-19T08:54:36.007Z,23.22
2023-04-19T08:55:36.045Z,23.26
2023-04-19T08:56:36.152Z,23.29
2023-04-19T08:57:36.032Z,23.31
2023-04-19T08:58:46.441Z,23.34
2023-04-19T08:59:37.113Z,23.35
2023-04-19T09:00:36.076Z,23.38
2023-04-19T09:01:36.674Z,23.42
2023-04-19T09:02:36.319Z,23.46
2023-04-19T09:03:44.270Z,23.50
2023-04-19T09:04:37.885Z,23.55
2023-04-19T09:05:36.232Z,23.62
2023-04-19T09:06:36.146Z,23.67
2023-04-19T09:07:36.052Z,23.74
2023-04-19T09:08:36.039Z,23.80
2023-04-19T09:09:42.991Z,23.85
2023-04-19T09:10:37.039Z,23.88
2023-04-19T09:11:36.026Z,23.92
2023-04-19T09:12:36.018Z,23.93
2023-04-19T09:13:36.026Z,23.94
2023-04-19T09:14:36.021Z,23.96
2023-04-19T09:15:36.064Z,23.96
2023-04-19T09:16:36.007Z,23.98
2023-04-19T09:17:36.048Z,23.99
2023-04-19T09:18:42.592Z,23.99
2023-04-19T09:19:37.025Z,24.00
2023-04-19T09:20:36.001Z,24.01
2023-04-19T09:21:36.008Z,24.00
2023-04-19T09:22:35.989Z,24.00
2023-04-19T09:23:35.995Z,24.00
2023-04-19T09:24:57.253Z,24.00
2023-04-19T09:25:47.208Z,24.00
2023-04-19T09:26:36.978Z,24.00
2023-04-19T09:27:35.964Z,24.01
2023-04-19T09:28:35.974Z,24.02
2023-04-19T09:29:35.987Z,24.02
2023-04-19T09:30:43.461Z,24.03
2023-04-19T09:31:50.790Z,24.05
2023-04-19T09:32:37.014Z,24.05
2023-04-19T09:33:36.029Z,24.06
2023-04-19T09:34:35.934Z,24.08
2023-04-19T09:35:35.941Z,24.07
2023-04-19T09:36:35.954Z,24.08
2023-04-19T09:37:57.430Z,24.09
2023-04-19T09:38:37.746Z,24.11
2023-04-19T09:39:35.920Z,24.13
2023-04-19T09:40:35.917Z,24.14
2023-04-19T09:41:37.463Z,24.15
2023-04-19T09:42:50.995Z,24.13
2023-04-19T09:45:35.857Z,23.97
2023-04-19T09:46:35.938Z,23.95
2023-04-19T09:47:35.917Z,23.91
2023-04-19T09:48:35.859Z,23.90
2023-04-19T09:50:46.757Z,23.83
2023-04-19T09:51:36.839Z,23.82
2023-04-19T09:52:35.834Z,23.82
2023-04-19T09:53:35.823Z,23.80
2023-04-19T09:54:35.829Z,23.77
2023-04-19T09:56:35.837Z,23.72
2023-04-19T09:57:35.835Z,23.70
2023-04-19T09:59:35.866Z,23.67
2023-04-19T10:00:45.188Z,23.64
2023-04-19T10:01:35.942Z,23.62
2023-04-19T10:02:36.076Z,23.61
2023-04-19T10:03:36.116Z,23.59
2023-04-19T10:04:50.413Z,23.58
2023-04-19T10:05:39.913Z,23.55
2023-04-19T10:06:58.434Z,23.53
2023-04-19T10:07:36.992Z,23.50
2023-04-19T10:08:35.860Z,23.48
2023-04-19T10:09:42.566Z,23.46
2023-04-19T10:11:35.862Z,23.41
2023-04-19T10:13:35.866Z,23.39
2023-04-19T10:14:35.877Z,23.38
2023-04-19T10:15:49.432Z,23.38
2023-04-19T10:16:37.019Z,23.36
2023-04-19T10:17:35.895Z,23.35
2023-04-19T10:18:35.884Z,23.35
2023-04-19T10:19:35.878Z,23.38
2023-04-19T10:20:35.901Z,23.38
2023-04-19T10:21:36.023Z,23.39
2023-04-19T10:22:35.885Z,23.40
2023-04-19T10:23:35.881Z,23.40
2023-04-19T10:24:35.892Z,23.39
2023-04-19T10:25:35.913Z,23.39
2023-04-19T10:26:35.901Z,23.36
2023-04-19T10:27:35.891Z,23.35
2023-04-19T10:28:35.904Z,23.34
2023-04-19T10:29:35.916Z,23.34
2023-04-19T10:30:35.895Z,23.35
2023-04-19T10:31:35.948Z,23.35
2023-04-19T10:32:35.928Z,23.35
2023-04-19T10:33:35.927Z,23.35
2023-04-19T10:34:35.938Z,23.35
2023-04-19T10:35:35.961Z,23.32
2023-04-19T10:36:35.957Z,23.32
2023-04-19T10:37:36.032Z,23.34
2023-04-19T10:38:36.036Z,23.36
2023-04-19T10:39:35.982Z,23.37
2023-04-19T10:40:35.981Z,23.36
2023-04-19T10:41:36.000Z,23.36
2023-04-19T10:42:36.002Z,23.35
2023-04-19T10:43:36.010Z,23.33
2023-04-19T10:44:36.019Z,23.30
2023-04-19T10:45:36.135Z,23.26
2023-04-19T10:46:36.442Z,23.26
2023-04-19T10:47:36.028Z,23.26
2023-04-19T10:48:36.034Z,23.26
2023-04-19T10:49:36.031Z,23.27
2023-04-19T10:50:36.046Z,23.27
2023-04-19T10:51:36.063Z,23.27
2023-04-19T10:52:36.062Z,23.25
2023-04-19T10:53:36.054Z,23.25
2023-04-19T10:54:36.067Z,23.27
2023-04-19T10:55:36.056Z,23.27
2023-04-19T10:56:36.082Z,23.28
2023-04-19T10:57:36.082Z,23.29
2023-04-19T10:58:36.075Z,23.29
2023-04-19T10:59:36.072Z,23.27
2023-04-19T11:00:36.090Z,23.26
2023-04-19T11:01:36.117Z,23.26
2023-04-19T11:02:36.141Z,23.26
2023-04-19T11:03:36.286Z,23.26
2023-04-19T11:04:36.214Z,23.25
2023-04-19T11:05:36.243Z,23.24
2023-04-19T11:06:36.129Z,23.24
2023-04-19T11:07:36.149Z,23.24
2023-04-19T11:08:36.148Z,23.24
2023-04-19T11:09:36.143Z,23.24
2023-04-19T11:10:36.159Z,23.26
2023-04-19T11:11:36.161Z,23.26
2023-04-19T11:12:36.175Z,23.25
2023-04-19T11:13:36.158Z,23.24
2023-04-19T11:14:36.162Z,23.24
2023-04-19T11:15:36.198Z,23.20
2023-04-19T11:16:45.452Z,23.13
2023-04-19T11:17:37.197Z,23.12
2023-04-19T11:18:36.286Z,23.11
2023-04-19T11:19:36.211Z,23.11
2023-04-19T11:20:36.202Z,23.11
2023-04-19T11:21:36.217Z,23.11
2023-04-19T11:22:36.342Z,23.10
2023-04-19T11:23:36.223Z,23.05
2023-04-19T11:24:36.241Z,22.99
2023-04-19T11:25:36.239Z,22.99
2023-04-19T11:26:36.249Z,22.99
2023-04-19T11:27:36.251Z,23.00
2023-04-19T11:28:36.260Z,23.00
2023-04-19T11:29:36.261Z,22.97
2023-04-19T11:30:36.289Z,22.94
2023-04-19T11:31:36.338Z,22.93
2023-04-19T11:32:36.384Z,22.95
2023-04-19T11:33:36.286Z,22.98
2023-04-19T11:34:36.319Z,23.01
2023-04-19T11:35:36.296Z,23.03
2023-04-19T11:36:36.317Z,23.06
2023-04-19T11:37:36.651Z,23.09
2023-04-19T11:38:36.312Z,23.12
2023-04-19T11:39:36.309Z,23.15
2023-04-19T11:40:36.314Z,23.18
2023-04-19T11:41:36.323Z,23.20
2023-04-19T11:42:36.321Z,23.22
2023-04-19T11:43:36.320Z,23.24
2023-04-19T11:44:36.324Z,23.26
2023-04-19T11:45:39.120Z,23.28
2023-04-19T11:46:36.335Z,23.31
2023-04-19T11:47:36.355Z,23.32
2023-04-19T11:48:36.355Z,23.34
2023-04-19T11:49:36.360Z,23.36
2023-04-19T11:50:36.350Z,23.39
2023-04-19T11:51:36.364Z,23.41
2023-04-19T11:52:36.358Z,23.42
2023-04-19T11:53:36.367Z,23.44
2023-04-19T11:54:36.355Z,23.45
2023-04-19T11:55:36.351Z,23.45
2023-04-19T11:56:36.371Z,23.46
2023-04-19T11:57:36.348Z,23.48
2023-04-19T11:58:36.400Z,23.50
2023-04-19T11:59:36.422Z,23.51
2023-04-19T12:00:36.370Z,23.53
2023-04-19T12:01:36.372Z,23.55
2023-04-19T12:02:36.473Z,23.57
2023-04-19T12:03:36.583Z,23.59
2023-04-19T12:04:36.519Z,23.59
2023-04-19T12:05:36.511Z,23.59
2023-04-19T12:06:36.488Z,23.60
2023-04-19T12:07:36.518Z,23.60
2023-04-19T12:08:36.554Z,23.60
2023-04-19T12:09:36.621Z,23.61
2023-04-19T12:10:36.681Z,23.61
2023-04-19T12:11:36.733Z,23.61
2023-04-19T12:12:36.799Z,23.60
2023-04-19T12:13:36.927Z,23.60
2023-04-19T12:14:36.927Z,23.61
2023-04-19T12:16:52.831Z,23.62
2023-04-19T12:17:57.536Z,23.61
2023-04-19T12:18:53.834Z,23.61
2023-04-19T12:19:52.827Z,23.61
2023-04-19T12:20:52.829Z,23.62
2023-04-19T12:21:52.862Z,23.62
2023-04-19T12:22:52.827Z,23.63
2023-04-19T12:23:52.823Z,23.63
2023-04-19T12:24:52.820Z,23.64
2023-04-19T12:25:52.823Z,23.64
2023-04-19T12:26:54.580Z,23.64
2023-04-19T12:27:52.838Z,23.65
2023-04-19T12:28:52.859Z,23.66
2023-04-19T12:29:52.834Z,23.66
2023-04-19T12:30:52.832Z,23.68
2023-04-19T12:31:52.893Z,23.69
2023-04-19T12:32:52.963Z,23.71
2023-04-19T12:33:52.827Z,23.73
2023-04-19T12:34:52.847Z,23.76
2023-04-19T12:35:52.796Z,23.80
2023-04-19T12:36:52.811Z,23.84
2023-04-19T12:37:52.784Z,23.90
2023-04-19T12:38:52.783Z,23.93
2023-04-19T12:39:54.258Z,23.97
2023-04-19T12:40:52.783Z,24.00
2023-04-19T12:41:52.794Z,24.03
2023-04-19T12:42:52.794Z,24.08
2023-04-19T12:43:52.787Z,24.12
2023-04-19T12:44:52.809Z,24.16
2023-04-19T12:45:52.818Z,24.20
2023-04-19T12:46:52.774Z,24.23
2023-04-19T12:47:52.890Z,24.25
2023-04-19T12:48:52.757Z,24.28
2023-04-19T12:49:52.734Z,24.31
2023-04-19T12:50:52.727Z,24.32
2023-04-19T12:51:53.661Z,24.34
2023-04-19T12:52:52.723Z,24.37
2023-04-19T12:53:52.723Z,24.38
2023-04-19T12:54:52.717Z,24.39
2023-04-19T12:55:52.704Z,24.40
2023-04-19T12:56:52.706Z,24.41
2023-04-19T12:57:52.666Z,24.41
2023-04-19T12:58:52.663Z,24.42
2023-04-19T12:59:52.637Z,24.42
2023-04-19T13:00:52.707Z,24.41
2023-04-19T13:01:52.687Z,24.41